createdAt,value
2019-03-09T00:00:19.652Z,4.10
2019-03-09T00:05:25.118Z,4.20
2019-03-09T00:10:31.318Z,4.40
2019-03-09T00:15:36.832Z,4.40
2019-03-09T00:20:42.299Z,4.50
2019-03-09T00:25:52.515Z,4.60
2019-03-09T00:31:02.944Z,4.60
2019-03-09T00:36:08.407Z,4.70
2019-03-09T00:41:14.205Z,4.70
2019-03-09T00:46:20.346Z,4.70
2019-03-09T00:51:26.210Z,4.70
2019-03-09T00:56:31.731Z,4.70
2019-03-09T01:01:37.130Z,4.70
2019-03-09T01:06:42.602Z,4.80
2019-03-09T01:11:48.062Z,4.80
2019-03-09T01:16:53.475Z,4.90
2019-03-09T01:21:59.270Z,5.00
2019-03-09T01:27:05.043Z,5.20
2019-03-09T01:32:11.133Z,5.30
2019-03-09T01:37:17.250Z,5.30
2019-03-09T01:42:23.009Z,5.40
2019-03-09T01:47:28.432Z,5.40
2019-03-09T01:52:33.873Z,5.40
2019-03-09T01:57:39.766Z,5.50
2019-03-09T02:02:45.602Z,5.40
2019-03-09T02:07:51.744Z,5.40
2019-03-09T02:12:57.619Z,5.30
2019-03-09T02:18:03.097Z,5.30
2019-03-09T02:23:08.623Z,5.30
2019-03-09T02:28:14.075Z,5.40
2019-03-09T02:33:19.496Z,5.50
2019-03-09T02:38:33.900Z,5.50
2019-03-09T02:43:39.345Z,5.60
2019-03-09T02:48:44.989Z,5.70
2019-03-09T02:53:50.574Z,5.70
2019-03-09T02:58:56.360Z,5.80
2019-03-09T03:04:01.834Z,5.80
2019-03-09T03:09:07.529Z,5.90
2019-03-09T03:14:13.024Z,6.00
2019-03-09T03:19:18.861Z,6.00
2019-03-09T03:24:24.760Z,6.00
2019-03-09T03:29:30.664Z,6.10
2019-03-09T03:34:36.450Z,6.20
2019-03-09T03:39:42.219Z,6.20
2019-03-09T03:44:47.655Z,6.20
2019-03-09T03:49:53.479Z,6.30
2019-03-09T03:54:59.382Z,6.20
2019-03-09T04:00:05.662Z,6.20
2019-03-09T04:05:11.165Z,6.30
2019-03-09T04:10:17.321Z,6.30
2019-03-09T04:15:23.059Z,6.30
2019-03-09T04:20:28.547Z,6.30
2019-03-09T04:25:34.506Z,6.30
2019-03-09T04:30:40.302Z,6.40
2019-03-09T04:35:45.758Z,6.40
2019-03-09T04:40:51.615Z,6.40
2019-03-09T04:45:57.410Z,6.40
2019-03-09T04:51:02.850Z,6.40
2019-03-09T04:56:08.290Z,6.30
2019-03-09T05:01:13.743Z,6.40
2019-03-09T05:06:20.178Z,6.40
2019-03-09T05:11:30.672Z,6.40
2019-03-09T05:16:36.094Z,6.50
2019-03-09T05:21:41.586Z,6.60
2019-03-09T05:26:47.090Z,6.60
2019-03-09T05:31:52.523Z,6.50
2019-03-09T05:36:58.010Z,6.50
2019-03-09T05:42:04.255Z,6.50
2019-03-09T05:47:10.041Z,6.50
2019-03-09T05:52:33.088Z,6.40
2019-03-09T05:57:38.496Z,6.50
2019-03-09T06:02:44.702Z,6.50
2019-03-09T06:07:50.150Z,6.50
2019-03-09T06:12:55.594Z,6.60
2019-03-09T06:18:01.387Z,6.60
2019-03-09T06:23:06.812Z,6.60
2019-03-09T06:28:12.240Z,6.40
2019-03-09T06:33:25.613Z,6.30
2019-03-09T06:38:55.965Z,6.20
2019-03-09T06:44:01.746Z,6.10
2019-03-09T06:49:07.536Z,6.10
2019-03-09T06:54:13.333Z,6.00
2019-03-09T06:59:18.737Z,6.00
2019-03-09T07:04:24.563Z,5.90
2019-03-09T07:09:30.004Z,5.90
2019-03-09T07:14:52.819Z,5.90
2019-03-09T07:19:58.706Z,5.90
2019-03-09T07:25:04.283Z,5.90
2019-03-09T07:30:14.956Z,5.80
2019-03-09T07:35:20.747Z,5.90
2019-03-09T07:40:26.186Z,5.90
2019-03-09T07:45:32.337Z,5.90
2019-03-09T07:50:38.114Z,6.10
2019-03-09T07:55:43.922Z,6.10
2019-03-09T08:00:50.042Z,6.20
2019-03-09T08:05:55.455Z,6.40
2019-03-09T08:11:01.626Z,6.60
2019-03-09T08:16:07.037Z,6.60
2019-03-09T08:21:12.522Z,6.60
2019-03-09T08:26:17.950Z,6.60
2019-03-09T08:31:23.367Z,6.80
2019-03-09T08:36:28.807Z,6.80
2019-03-09T08:41:34.288Z,6.90
2019-03-09T08:46:39.725Z,7.10
2019-03-09T08:51:45.162Z,7.40
2019-03-09T08:56:50.572Z,7.70
2019-03-09T09:01:56.342Z,7.80
2019-03-09T09:07:02.118Z,7.60
2019-03-09T09:12:07.915Z,7.60
2019-03-09T09:17:13.354Z,7.60
2019-03-09T09:22:18.758Z,7.40
2019-03-09T09:27:24.279Z,7.30
2019-03-09T09:32:29.686Z,7.60
2019-03-09T09:37:35.569Z,7.90
2019-03-09T09:42:41.070Z,8.30
2019-03-09T09:47:46.479Z,9.00
2019-03-09T09:52:52.601Z,9.10
2019-03-09T09:57:58.384Z,9.40
2019-03-09T10:03:04.191Z,9.70
2019-03-09T10:08:09.959Z,9.70
2019-03-09T10:13:15.483Z,10.10
2019-03-09T10:18:20.934Z,10.10
2019-03-09T10:23:26.770Z,10.50
2019-03-09T10:28:32.212Z,10.80
2019-03-09T10:33:37.714Z,11.20
2019-03-09T10:38:43.168Z,11.50
2019-03-09T10:43:48.609Z,11.90
2019-03-09T10:48:54.094Z,10.80
2019-03-09T10:53:59.610Z,10.30
2019-03-09T10:59:05.067Z,10.10
2019-03-09T11:04:10.947Z,10.00
2019-03-09T11:09:16.400Z,9.90
2019-03-09T11:14:21.907Z,10.30
2019-03-09T11:19:27.392Z,10.40
2019-03-09T11:24:33.209Z,10.30
2019-03-09T11:29:39.829Z,10.20
2019-03-09T11:34:45.549Z,10.40
2019-03-09T11:39:52.756Z,10.40
2019-03-09T11:44:58.290Z,10.50
2019-03-09T11:50:04.322Z,10.20
2019-03-09T11:55:10.247Z,10.70
2019-03-09T12:00:19.206Z,11.50
2019-03-09T12:05:25.102Z,11.50
2019-03-09T12:10:31.600Z,11.20
2019-03-09T12:15:37.835Z,11.20
2019-03-09T12:20:43.342Z,11.00
2019-03-09T12:25:48.786Z,10.90
2019-03-09T12:30:54.323Z,10.90
2019-03-09T12:36:00.160Z,11.00
2019-03-09T12:41:06.492Z,10.80
2019-03-09T12:46:11.970Z,10.70
2019-03-09T12:51:17.773Z,11.10
2019-03-09T12:56:23.291Z,11.40
2019-03-09T13:01:28.775Z,11.40
2019-03-09T13:06:34.387Z,11.40
2019-03-09T13:11:39.911Z,11.70
2019-03-09T13:16:46.046Z,11.70
2019-03-09T13:21:51.698Z,11.70
2019-03-09T13:26:57.193Z,11.60
2019-03-09T13:32:03.022Z,11.90
2019-03-09T13:37:09.251Z,12.20
2019-03-09T13:42:15.481Z,11.80
2019-03-09T13:47:20.974Z,11.60
2019-03-09T13:52:26.436Z,11.70
2019-03-09T13:57:31.878Z,11.60
2019-03-09T14:02:37.370Z,11.40
2019-03-09T14:07:42.916Z,11.30
2019-03-09T14:12:48.766Z,11.10
2019-03-09T14:17:54.234Z,10.90
2019-03-09T14:22:59.768Z,10.80
2019-03-09T14:28:05.564Z,12.30
2019-03-09T14:33:11.315Z,12.20
2019-03-09T14:38:16.742Z,11.70
2019-03-09T14:43:22.179Z,11.30
2019-03-09T14:48:27.621Z,11.00
2019-03-09T14:53:33.102Z,10.90
2019-03-09T14:58:38.538Z,10.90
2019-03-09T15:03:44.001Z,9.60
2019-03-09T15:08:49.818Z,9.30
2019-03-09T15:13:56.039Z,9.40
2019-03-09T15:19:01.834Z,9.40
2019-03-09T15:24:07.272Z,9.40
2019-03-09T15:29:12.731Z,9.40
2019-03-09T15:34:18.203Z,9.20
2019-03-09T15:39:23.963Z,9.20
2019-03-09T15:44:29.413Z,9.30
2019-03-09T15:49:35.171Z,9.20
2019-03-09T15:54:41.174Z,9.10
2019-03-09T15:59:46.951Z,9.00
2019-03-09T16:04:52.480Z,8.90
2019-03-09T16:09:58.045Z,8.90
2019-03-09T16:15:03.895Z,8.80
2019-03-09T16:20:13.258Z,8.70
2019-03-09T16:25:18.663Z,8.70
2019-03-09T16:30:24.119Z,8.80
2019-03-09T16:35:30.315Z,8.90
2019-03-09T16:40:40.477Z,8.90
2019-03-09T16:45:41.543Z,8.20
2019-03-09T16:50:47.001Z,7.50
2019-03-09T16:55:52.783Z,7.20
2019-03-09T17:00:58.296Z,7.00
2019-03-09T17:06:04.737Z,6.90
2019-03-09T17:11:10.494Z,6.70
2019-03-09T17:16:16.590Z,6.50
2019-03-09T17:21:22.009Z,6.30
2019-03-09T17:26:27.883Z,6.20
2019-03-09T17:31:33.294Z,6.20
2019-03-09T17:36:38.716Z,6.30
2019-03-09T17:41:44.195Z,6.30
2019-03-09T17:46:49.594Z,6.40
2019-03-09T17:51:55.107Z,6.30
2019-03-09T17:57:00.611Z,6.30
2019-03-09T18:02:06.774Z,6.40
2019-03-09T18:07:12.538Z,6.40
2019-03-09T18:12:18.303Z,6.30
2019-03-09T18:17:24.433Z,6.20
2019-03-09T18:22:29.838Z,6.20
2019-03-09T18:27:35.673Z,6.10
2019-03-09T18:32:41.049Z,6.10
2019-03-09T18:37:46.469Z,6.10
2019-03-09T18:42:52.241Z,5.90
2019-03-09T18:47:58.778Z,5.80
2019-03-09T18:53:05.026Z,5.80
2019-03-09T18:58:10.446Z,5.70
2019-03-09T19:03:16.028Z,5.80
2019-03-09T19:08:21.559Z,5.70
2019-03-09T19:13:27.119Z,5.70
2019-03-09T19:18:32.534Z,5.80
2019-03-09T19:23:38.017Z,5.90
2019-03-09T19:28:43.775Z,6.10
2019-03-09T19:33:49.187Z,6.00
2019-03-09T19:38:54.611Z,6.00
2019-03-09T19:44:00.122Z,6.00
2019-03-09T19:49:05.567Z,6.10
2019-03-09T19:54:11.075Z,6.10
2019-03-09T19:59:16.488Z,6.10
2019-03-09T20:04:22.317Z,6.20
2019-03-09T20:09:28.123Z,6.30
2019-03-09T20:14:33.577Z,6.40
2019-03-09T20:19:39.030Z,6.50
2019-03-09T20:24:44.566Z,6.60
2019-03-09T20:29:50.021Z,6.60
2019-03-09T20:34:55.463Z,6.70
2019-03-09T20:40:00.963Z,6.70
2019-03-09T20:45:09.908Z,6.50
2019-03-09T20:50:16.298Z,5.90
2019-03-09T20:55:22.073Z,5.80
2019-03-09T21:00:27.547Z,5.90
2019-03-09T21:05:33.338Z,5.90
2019-03-09T21:10:38.791Z,5.90
2019-03-09T21:15:44.506Z,5.80
2019-03-09T21:20:49.952Z,5.70
2019-03-09T21:25:55.390Z,5.70
2019-03-09T21:31:01.917Z,5.40
2019-03-09T21:36:08.320Z,5.50
2019-03-09T21:41:14.135Z,5.60
2019-03-09T21:46:20.122Z,5.60
2019-03-09T21:51:25.710Z,5.50
2019-03-09T21:56:31.318Z,5.50
2019-03-09T22:01:37.106Z,5.60
2019-03-09T22:06:43.370Z,5.70
2019-03-09T22:11:48.864Z,5.70
2019-03-09T22:16:56.900Z,5.40
2019-03-09T22:22:00.186Z,5.20
2019-03-09T22:27:06.794Z,5.20
2019-03-09T22:32:12.498Z,5.20
2019-03-09T22:37:17.961Z,5.20
2019-03-09T22:42:23.391Z,5.20
2019-03-09T22:47:29.167Z,5.20
2019-03-09T22:52:34.586Z,5.20
2019-03-09T22:57:40.071Z,5.10
2019-03-09T23:02:45.828Z,5.00
2019-03-09T23:07:51.615Z,4.90
2019-03-09T23:12:57.761Z,4.90
2019-03-09T23:18:03.435Z,4.80
2019-03-09T23:23:09.183Z,4.80
2019-03-09T23:28:14.940Z,4.90
2019-03-09T23:33:20.371Z,4.90
2019-03-09T23:38:25.850Z,4.90
2019-03-09T23:43:31.644Z,4.70
2019-03-09T23:48:43.788Z,4.60
2019-03-09T23:53:49.630Z,4.70
2019-03-09T23:58:56.099Z,4.60
